sensor_id;sensor_type;location;lat;lon;timestamp;pressure;altitude;pressure_sealevel;temperature;humidity
54329;BME280;40710;51.120;13.136;2023-06-19T00:00:20;99177.63;;;21.07;53.76
54329;BME280;40710;51.120;13.136;2023-06-19T00:02:44;99173.31;;;20.96;53.96
54329;BME280;40710;51.120;13.136;2023-06-19T00:05:09;99179.63;;;21.31;52.74
54329;BME280;40710;51.120;13.136;2023-06-19T00:07:36;99171.63;;;21.31;52.61
54329;BME280;40710;51.120;13.136;2023-06-19T00:10:00;99166.81;;;21.35;52.51
54329;BME280;40710;51.120;13.136;2023-06-19T00:12:25;99165.25;;;20.88;54.06
54329;BME280;40710;51.120;13.136;2023-06-19T00:14:49;99165.31;;;20.96;53.84
54329;BME280;40710;51.120;13.136;2023-06-19T00:17:14;99167.28;;;21.12;52.93
54329;BME280;40710;51.120;13.136;2023-06-19T00:19:41;99169.38;;;21.01;53.44
54329;BME280;40710;51.120;13.136;2023-06-19T00:22:05;99166.56;;;21.02;53.14
54329;BME280;40710;51.120;13.136;2023-06-19T00:24:30;99159.75;;;21.08;53.18
54329;BME280;40710;51.120;13.136;2023-06-19T00:26:54;99161.88;;;21.22;52.90
54329;BME280;40710;51.120;13.136;2023-06-19T00:29:19;99155.09;;;21.54;51.70
54329;BME280;40710;51.120;13.136;2023-06-19T00:31:43;99157.19;;;21.24;52.56
54329;BME280;40710;51.120;13.136;2023-06-19T00:34:08;99163.09;;;21.10;52.45
54329;BME280;40710;51.120;13.136;2023-06-19T00:36:32;99160.34;;;20.84;53.30
54329;BME280;40710;51.120;13.136;2023-06-19T00:38:57;99159.34;;;21.21;52.44
54329;BME280;40710;51.120;13.136;2023-06-19T00:41:21;99153.66;;;20.98;53.03
54329;BME280;40710;51.120;13.136;2023-06-19T00:43:47;99157.69;;;20.84;53.37
54329;BME280;40710;51.120;13.136;2023-06-19T00:46:11;99156.78;;;20.75;53.26
54329;BME280;40710;51.120;13.136;2023-06-19T00:48:36;99159.69;;;20.64;53.45
54329;BME280;40710;51.120;13.136;2023-06-19T00:51:01;99158.28;;;20.32;54.43
54329;BME280;40710;51.120;13.136;2023-06-19T00:53:26;99162.22;;;20.55;53.80
54329;BME280;40710;51.120;13.136;2023-06-19T00:55:53;99159.69;;;20.64;53.75
54329;BME280;40710;51.120;13.136;2023-06-19T00:58:19;99157.28;;;20.96;52.85
54329;BME280;40710;51.120;13.136;2023-06-19T01:00:44;99151.81;;;20.80;53.15
54329;BME280;40710;51.120;13.136;2023-06-19T01:03:09;99151.81;;;20.62;53.82
54329;BME280;40710;51.120;13.136;2023-06-19T01:05:33;99150.84;;;20.53;54.23
54329;BME280;40710;51.120;13.136;2023-06-19T01:11:00;99149.66;;;20.20;54.76
54329;BME280;40710;51.120;13.136;2023-06-19T01:13:37;99145.84;;;20.40;54.51
54329;BME280;40710;51.120;13.136;2023-06-19T01:16:06;99146.59;;;20.15;55.50
54329;BME280;40710;51.120;13.136;2023-06-19T01:18:32;99138.19;;;20.37;54.69
54329;BME280;40710;51.120;13.136;2023-06-19T01:20:56;99141.38;;;20.13;55.57
54329;BME280;40710;51.120;13.136;2023-06-19T01:23:21;99132.69;;;20.11;55.57
54329;BME280;40710;51.120;13.136;2023-06-19T01:25:46;99142.03;;;19.97;55.96
54329;BME280;40710;51.120;13.136;2023-06-19T01:28:12;99135.00;;;20.24;55.46
54329;BME280;40710;51.120;13.136;2023-06-19T01:30:40;99126.28;;;20.04;55.79
54329;BME280;40710;51.120;13.136;2023-06-19T01:33:15;99130.22;;;20.00;55.65
54329;BME280;40710;51.120;13.136;2023-06-19T01:35:43;99131.53;;;19.86;56.38
54329;BME280;40710;51.120;13.136;2023-06-19T01:38:10;99129.66;;;19.59;57.19
54329;BME280;40710;51.120;13.136;2023-06-19T01:40:37;99111.59;;;19.90;56.24
54329;BME280;40710;51.120;13.136;2023-06-19T01:43:04;99120.88;;;19.86;56.37
54329;BME280;40710;51.120;13.136;2023-06-19T01:45:30;99128.22;;;19.74;56.65
54329;BME280;40710;51.120;13.136;2023-06-19T01:47:55;99110.38;;;19.85;56.26
54329;BME280;40710;51.120;13.136;2023-06-19T01:50:24;99114.13;;;19.92;56.42
54329;BME280;40710;51.120;13.136;2023-06-19T01:52:49;99111.44;;;20.19;55.40
54329;BME280;40710;51.120;13.136;2023-06-19T01:55:14;99116.00;;;20.09;55.60
54329;BME280;40710;51.120;13.136;2023-06-19T01:57:38;99121.28;;;20.19;55.76
54329;BME280;40710;51.120;13.136;2023-06-19T02:00:04;99115.53;;;20.42;54.56
54329;BME280;40710;51.120;13.136;2023-06-19T02:02:32;99120.28;;;20.20;55.38
54329;BME280;40710;51.120;13.136;2023-06-19T02:04:56;99118.13;;;20.06;55.65
54329;BME280;40710;51.120;13.136;2023-06-19T02:07:22;99111.91;;;19.87;56.16
54329;BME280;40710;51.120;13.136;2023-06-19T02:09:47;99117.19;;;19.97;55.83
54329;BME280;40710;51.120;13.136;2023-06-19T02:12:12;99103.72;;;20.44;54.38
54329;BME280;40710;51.120;13.136;2023-06-19T02:14:36;99098.97;;;20.38;55.01
54329;BME280;40710;51.120;13.136;2023-06-19T02:17:01;99099.50;;;20.24;55.49
54329;BME280;40710;51.120;13.136;2023-06-19T02:19:25;99098.88;;;20.30;54.82
54329;BME280;40710;51.120;13.136;2023-06-19T02:21:50;99090.75;;;20.03;55.42
54329;BME280;40710;51.120;13.136;2023-06-19T02:24:14;99092.47;;;19.95;56.02
54329;BME280;40710;51.120;13.136;2023-06-19T02:26:39;99094.41;;;20.02;55.92
54329;BME280;40710;51.120;13.136;2023-06-19T02:29:03;99096.03;;;19.86;56.29
54329;BME280;40710;51.120;13.136;2023-06-19T02:31:28;99092.47;;;19.95;56.36
54329;BME280;40710;51.120;13.136;2023-06-19T02:33:52;99087.41;;;19.64;56.93
54329;BME280;40710;51.120;13.136;2023-06-19T02:36:17;99084.56;;;20.03;56.10
54329;BME280;40710;51.120;13.136;2023-06-19T02:38:50;99085.31;;;20.23;55.60
54329;BME280;40710;51.120;13.136;2023-06-19T02:41:15;99083.91;;;20.19;55.38
54329;BME280;40710;51.120;13.136;2023-06-19T02:43:41;99083.09;;;20.18;55.79
54329;BME280;40710;51.120;13.136;2023-06-19T02:46:06;99079.16;;;20.58;54.50
54329;BME280;40710;51.120;13.136;2023-06-19T02:48:30;99079.59;;;20.36;54.92
54329;BME280;40710;51.120;13.136;2023-06-19T02:50:55;99084.88;;;20.00;55.91
54329;BME280;40710;51.120;13.136;2023-06-19T02:53:19;99076.69;;;20.47;54.84
54329;BME280;40710;51.120;13.136;2023-06-19T02:55:44;99070.59;;;20.37;54.93
54329;BME280;40710;51.120;13.136;2023-06-19T02:58:08;99076.63;;;20.39;54.91
54329;BME280;40710;51.120;13.136;2023-06-19T03:00:33;99073.25;;;20.37;55.02
54329;BME280;40710;51.120;13.136;2023-06-19T03:02:57;99073.88;;;20.13;55.18
54329;BME280;40710;51.120;13.136;2023-06-19T03:05:23;99072.22;;;20.02;55.50
54329;BME280;40710;51.120;13.136;2023-06-19T03:07:47;99073.59;;;20.52;54.55
54329;BME280;40710;51.120;13.136;2023-06-19T03:10:12;99079.25;;;20.67;53.90
54329;BME280;40710;51.120;13.136;2023-06-19T03:12:36;99070.75;;;20.53;54.32
54329;BME280;40710;51.120;13.136;2023-06-19T03:15:01;99082.59;;;20.87;53.75
54329;BME280;40710;51.120;13.136;2023-06-19T03:17:25;99077.59;;;20.66;54.46
54329;BME280;40710;51.120;13.136;2023-06-19T03:19:50;99076.34;;;20.60;54.42
54329;BME280;40710;51.120;13.136;2023-06-19T03:22:15;99077.16;;;20.96;53.22
54329;BME280;40710;51.120;13.136;2023-06-19T03:24:39;99066.16;;;21.00;52.97
54329;BME280;40710;51.120;13.136;2023-06-19T03:27:04;99070.78;;;20.35;54.61
54329;BME280;40710;51.120;13.136;2023-06-19T03:29:28;99072.66;;;20.61;53.96
54329;BME280;40710;51.120;13.136;2023-06-19T03:31:53;99071.66;;;21.16;52.68
54329;BME280;40710;51.120;13.136;2023-06-19T03:34:17;99062.16;;;21.22;52.64
54329;BME280;40710;51.120;13.136;2023-06-19T03:36:42;99071.81;;;20.96;53.37
54329;BME280;40710;51.120;13.136;2023-06-19T03:39:06;99069.88;;;21.25;52.41
54329;BME280;40710;51.120;13.136;2023-06-19T03:41:31;99073.97;;;21.19;52.38
54329;BME280;40710;51.120;13.136;2023-06-19T03:43:56;99060.22;;;21.32;52.40
54329;BME280;40710;51.120;13.136;2023-06-19T03:46:20;99062.91;;;21.32;52.05
54329;BME280;40710;51.120;13.136;2023-06-19T03:48:45;99063.06;;;21.57;51.91
54329;BME280;40710;51.120;13.136;2023-06-19T03:51:09;99053.25;;;21.65;51.68
54329;BME280;40710;51.120;13.136;2023-06-19T03:53:34;99050.03;;;22.04;50.45
54329;BME280;40710;51.120;13.136;2023-06-19T03:55:58;99057.34;;;21.94;50.81
54329;BME280;40710;51.120;13.136;2023-06-19T03:58:23;99068.41;;;21.99;50.55
54329;BME280;40710;51.120;13.136;2023-06-19T04:00:47;99077.38;;;21.82;51.26
54329;BME280;40710;51.120;13.136;2023-06-19T04:03:12;99073.75;;;21.99;51.23
54329;BME280;40710;51.120;13.136;2023-06-19T04:05:37;99075.09;;;21.95;51.52
54329;BME280;40710;51.120;13.136;2023-06-19T04:08:03;99071.25;;;21.98;51.17
54329;BME280;40710;51.120;13.136;2023-06-19T04:10:28;99067.47;;;22.25;50.37
54329;BME280;40710;51.120;13.136;2023-06-19T04:12:52;99065.34;;;22.28;50.17
54329;BME280;40710;51.120;13.136;2023-06-19T04:15:19;99067.78;;;22.05;50.85
54329;BME280;40710;51.120;13.136;2023-06-19T04:17:44;99066.91;;;22.05;50.72
54329;BME280;40710;51.120;13.136;2023-06-19T04:20:09;99077.00;;;21.77;51.73
54329;BME280;40710;51.120;13.136;2023-06-19T04:22:35;99069.81;;;22.20;50.98
54329;BME280;40710;51.120;13.136;2023-06-19T04:24:59;99061.31;;;22.33;50.74
54329;BME280;40710;51.120;13.136;2023-06-19T04:27:24;99071.88;;;22.51;50.73
54329;BME280;40710;51.120;13.136;2023-06-19T04:29:49;99075.34;;;22.26;50.76
54329;BME280;40710;51.120;13.136;2023-06-19T04:32:16;99075.16;;;22.20;51.02
54329;BME280;40710;51.120;13.136;2023-06-19T04:34:41;99074.59;;;22.42;50.67
54329;BME280;40710;51.120;13.136;2023-06-19T04:37:10;99072.75;;;22.68;50.03
54329;BME280;40710;51.120;13.136;2023-06-19T04:39:34;99072.22;;;22.56;50.13
54329;BME280;40710;51.120;13.136;2023-06-19T04:41:59;99073.25;;;22.55;50.36
54329;BME280;40710;51.120;13.136;2023-06-19T04:44:24;99073.41;;;22.61;50.13
54329;BME280;40710;51.120;13.136;2023-06-19T04:46:49;99075.44;;;22.76;50.51
54329;BME280;40710;51.120;13.136;2023-06-19T04:49:14;99081.97;;;22.14;50.90
54329;BME280;40710;51.120;13.136;2023-06-19T04:51:39;99078.63;;;22.71;49.90
54329;BME280;40710;51.120;13.136;2023-06-19T04:54:04;99083.97;;;22.88;49.53
54329;BME280;40710;51.120;13.136;2023-06-19T04:56:28;99074.94;;;22.97;49.45
54329;BME280;40710;51.120;13.136;2023-06-19T04:58:53;99065.72;;;22.75;50.19
54329;BME280;40710;51.120;13.136;2023-06-19T05:01:20;99081.13;;;22.73;50.24
54329;BME280;40710;51.120;13.136;2023-06-19T05:03:51;99073.53;;;22.27;51.46
54329;BME280;40710;51.120;13.136;2023-06-19T05:06:16;99072.97;;;22.15;51.76
54329;BME280;40710;51.120;13.136;2023-06-19T05:08:41;99068.56;;;22.81;50.56
54329;BME280;40710;51.120;13.136;2023-06-19T05:11:05;99068.56;;;22.49;51.19
54329;BME280;40710;51.120;13.136;2023-06-19T05:13:30;99061.22;;;22.67;50.49
54329;BME280;40710;51.120;13.136;2023-06-19T05:15:55;99062.88;;;22.68;50.61
54329;BME280;40710;51.120;13.136;2023-06-19T05:18:20;99060.22;;;22.60;50.71
54329;BME280;40710;51.120;13.136;2023-06-19T05:20:45;99073.56;;;22.35;51.98
54329;BME280;40710;51.120;13.136;2023-06-19T05:23:10;99071.28;;;23.06;50.44
54329;BME280;40710;51.120;13.136;2023-06-19T05:25:34;99071.91;;;23.25;49.83
54329;BME280;40710;51.120;13.136;2023-06-19T05:27:59;99065.72;;;23.16;49.52
54329;BME280;40710;51.120;13.136;2023-06-19T05:30:24;99080.47;;;22.71;51.03
54329;BME280;40710;51.120;13.136;2023-06-19T05:32:48;99087.97;;;22.75;51.29
54329;BME280;40710;51.120;13.136;2023-06-19T05:35:13;99087.47;;;22.96;50.36
54329;BME280;40710;51.120;13.136;2023-06-19T05:37:37;99090.50;;;22.60;50.88
54329;BME280;40710;51.120;13.136;2023-06-19T05:40:03;99087.66;;;23.36;49.54
54329;BME280;40710;51.120;13.136;2023-06-19T05:42:28;99090.88;;;23.07;50.50
54329;BME280;40710;51.120;13.136;2023-06-19T05:44:52;99103.56;;;22.96;50.40
54329;BME280;40710;51.120;13.136;2023-06-19T05:47:17;99093.34;;;23.33;49.90
54329;BME280;40710;51.120;13.136;2023-06-19T05:49:44;99078.09;;;23.97;48.64
54329;BME280;40710;51.120;13.136;2023-06-19T05:52:09;99085.16;;;23.90;48.78
54329;BME280;40710;51.120;13.136;2023-06-19T05:54:33;99083.16;;;23.84;48.68
54329;BME280;40710;51.120;13.136;2023-06-19T05:56:58;99086.94;;;24.06;48.93
54329;BME280;40710;51.120;13.136;2023-06-19T05:59:22;99087.06;;;24.13;48.84
54329;BME280;40710;51.120;13.136;2023-06-19T06:01:47;99078.59;;;23.93;48.98
54329;BME280;40710;51.120;13.136;2023-06-19T06:04:11;99088.34;;;24.25;48.12
54329;BME280;40710;51.120;13.136;2023-06-19T06:06:36;99089.50;;;24.62;47.23
54329;BME280;40710;51.120;13.136;2023-06-19T06:09:00;99090.78;;;24.35;47.40
54329;BME280;40710;51.120;13.136;2023-06-19T06:11:25;99095.69;;;24.31;47.99
54329;BME280;40710;51.120;13.136;2023-06-19T06:13:50;99094.78;;;24.16;48.05
54329;BME280;40710;51.120;13.136;2023-06-19T06:16:15;99095.78;;;24.46;47.61
54329;BME280;40710;51.120;13.136;2023-06-19T06:18:39;99095.00;;;24.06;48.56
54329;BME280;40710;51.120;13.136;2023-06-19T06:21:04;99101.47;;;24.51;47.56
54329;BME280;40710;51.120;13.136;2023-06-19T06:23:29;99105.28;;;23.94;48.83
54329;BME280;40710;51.120;13.136;2023-06-19T06:25:53;99102.13;;;24.22;48.45
54329;BME280;40710;51.120;13.136;2023-06-19T06:28:25;99105.91;;;24.05;48.85
54329;BME280;40710;51.120;13.136;2023-06-19T06:30:51;99100.31;;;24.46;48.07
54329;BME280;40710;51.120;13.136;2023-06-19T06:33:16;99109.34;;;23.82;49.38
54329;BME280;40710;51.120;13.136;2023-06-19T06:35:40;99102.63;;;24.57;47.94
54329;BME280;40710;51.120;13.136;2023-06-19T06:38:05;99103.19;;;24.44;47.98
54329;BME280;40710;51.120;13.136;2023-06-19T06:40:29;99106.88;;;24.75;47.45
54329;BME280;40710;51.120;13.136;2023-06-19T06:42:54;99115.59;;;24.45;48.82
54329;BME280;40710;51.120;13.136;2023-06-19T06:45:19;99116.94;;;24.18;48.92
54329;BME280;40710;51.120;13.136;2023-06-19T06:47:43;99115.25;;;24.48;48.21
54329;BME280;40710;51.120;13.136;2023-06-19T06:50:08;99111.63;;;24.64;48.00
54329;BME280;40710;51.120;13.136;2023-06-19T06:52:34;99118.03;;;24.63;48.99
54329;BME280;40710;51.120;13.136;2023-06-19T06:54:58;99109.91;;;24.71;48.25
54329;BME280;40710;51.120;13.136;2023-06-19T06:57:23;99116.13;;;24.95;48.52
54329;BME280;40710;51.120;13.136;2023-06-19T06:59:47;99124.19;;;24.95;51.51
54329;BME280;40710;51.120;13.136;2023-06-19T07:02:12;99118.56;;;25.43;48.44
54329;BME280;40710;51.120;13.136;2023-06-19T07:04:37;99111.44;;;24.89;48.31
54329;BME280;40710;51.120;13.136;2023-06-19T07:07:01;99108.66;;;24.82;47.73
54329;BME280;40710;51.120;13.136;2023-06-19T07:09:28;99111.13;;;24.69;48.60
54329;BME280;40710;51.120;13.136;2023-06-19T07:11:52;99107.25;;;25.33;46.32
54329;BME280;40710;51.120;13.136;2023-06-19T07:14:18;99112.66;;;24.86;48.34
54329;BME280;40710;51.120;13.136;2023-06-19T07:16:42;99097.34;;;25.63;46.06
54329;BME280;40710;51.120;13.136;2023-06-19T07:19:07;99101.31;;;25.82;45.38
54329;BME280;40710;51.120;13.136;2023-06-19T07:21:31;99118.41;;;25.44;47.68
54329;BME280;40710;51.120;13.136;2023-06-19T07:23:57;99120.88;;;25.31;47.32
54329;BME280;40710;51.120;13.136;2023-06-19T07:26:21;99114.97;;;25.51;48.21
54329;BME280;40710;51.120;13.136;2023-06-19T07:28:46;99131.22;;;24.42;49.62
54329;BME280;40710;51.120;13.136;2023-06-19T07:31:10;99122.16;;;24.97;48.38
54329;BME280;40710;51.120;13.136;2023-06-19T07:33:35;99135.19;;;25.46;49.84
54329;BME280;40710;51.120;13.136;2023-06-19T07:35:59;99133.78;;;25.51;50.45
54329;BME280;40710;51.120;13.136;2023-06-19T07:38:24;99147.19;;;24.98;50.90
54329;BME280;40710;51.120;13.136;2023-06-19T07:40:48;99130.53;;;24.48;49.77
54329;BME280;40710;51.120;13.136;2023-06-19T07:43:13;99150.22;;;25.41;51.24
54329;BME280;40710;51.120;13.136;2023-06-19T07:45:38;99149.50;;;25.62;51.16
54329;BME280;40710;51.120;13.136;2023-06-19T07:48:03;99143.38;;;25.68;50.69
54329;BME280;40710;51.120;13.136;2023-06-19T07:50:27;99146.16;;;25.22;49.47
54329;BME280;40710;51.120;13.136;2023-06-19T07:52:52;99156.00;;;25.53;51.47
54329;BME280;40710;51.120;13.136;2023-06-19T07:55:16;99158.88;;;24.82;50.65
54329;BME280;40710;51.120;13.136;2023-06-19T07:57:41;99158.38;;;24.86;49.76
54329;BME280;40710;51.120;13.136;2023-06-19T08:00:06;99164.13;;;25.44;51.36
54329;BME280;40710;51.120;13.136;2023-06-19T08:02:37;99171.44;;;25.13;52.26
54329;BME280;40710;51.120;13.136;2023-06-19T08:05:01;99174.00;;;25.67;51.62
54329;BME280;40710;51.120;13.136;2023-06-19T08:07:27;99170.28;;;25.68;50.90
54329;BME280;40710;51.120;13.136;2023-06-19T08:09:51;99171.31;;;25.67;51.60
54329;BME280;40710;51.120;13.136;2023-06-19T08:12:16;99175.13;;;26.17;52.08
54329;BME280;40710;51.120;13.136;2023-06-19T08:14:41;99171.94;;;26.07;50.87
54329;BME280;40710;51.120;13.136;2023-06-19T08:17:05;99172.72;;;25.93;51.40
54329;BME280;40710;51.120;13.136;2023-06-19T08:19:30;99162.53;;;26.18;49.18
54329;BME280;40710;51.120;13.136;2023-06-19T08:21:54;99170.31;;;25.98;50.84
54329;BME280;40710;51.120;13.136;2023-06-19T08:24:19;99170.06;;;26.08;52.17
54329;BME280;40710;51.120;13.136;2023-06-19T08:26:43;99164.66;;;26.22;51.46
54329;BME280;40710;51.120;13.136;2023-06-19T08:29:08;99170.75;;;26.31;52.31
54329;BME280;40710;51.120;13.136;2023-06-19T08:31:33;99171.06;;;26.21;53.23
54329;BME280;40710;51.120;13.136;2023-06-19T08:33:58;99159.44;;;26.36;52.41
54329;BME280;40710;51.120;13.136;2023-06-19T08:36:23;99160.53;;;26.41;52.45
54329;BME280;40710;51.120;13.136;2023-06-19T08:38:47;99158.06;;;26.10;50.85
54329;BME280;40710;51.120;13.136;2023-06-19T08:41:13;99155.47;;;26.32;50.66
54329;BME280;40710;51.120;13.136;2023-06-19T08:43:38;99177.75;;;25.43;51.44
54329;BME280;40710;51.120;13.136;2023-06-19T08:46:15;99175.53;;;25.46;51.99
54329;BME280;40710;51.120;13.136;2023-06-19T08:48:40;99154.03;;;25.46;48.42
54329;BME280;40710;51.120;13.136;2023-06-19T08:51:05;99144.31;;;26.05;45.21
54329;BME280;40710;51.120;13.136;2023-06-19T08:53:35;99143.75;;;26.25;47.53
54329;BME280;40710;51.120;13.136;2023-06-19T08:56:00;99145.09;;;25.99;45.98
54329;BME280;40710;51.120;13.136;2023-06-19T08:58:25;99143.59;;;25.96;48.58
54329;BME280;40710;51.120;13.136;2023-06-19T09:00:50;99162.78;;;25.63;49.72
54329;BME280;40710;51.120;13.136;2023-06-19T09:03:20;99157.69;;;26.13;49.50
54329;BME280;40710;51.120;13.136;2023-06-19T09:05:46;99157.25;;;26.25;49.22
54329;BME280;40710;51.120;13.136;2023-06-19T09:08:14;99154.34;;;26.11;48.07
54329;BME280;40710;51.120;13.136;2023-06-19T09:10:40;99134.69;;;26.47;46.95
54329;BME280;40710;51.120;13.136;2023-06-19T09:13:04;99144.09;;;26.36;49.85
54329;BME280;40710;51.120;13.136;2023-06-19T09:15:34;99128.31;;;26.70;45.98
54329;BME280;40710;51.120;13.136;2023-06-19T09:18:05;99130.72;;;26.79;46.84
54329;BME280;40710;51.120;13.136;2023-06-19T09:20:31;99137.81;;;26.66;48.11
54329;BME280;40710;51.120;13.136;2023-06-19T09:22:56;99128.28;;;26.85;47.42
54329;BME280;40710;51.120;13.136;2023-06-19T09:25:21;99125.75;;;27.05;46.22
54329;BME280;40710;51.120;13.136;2023-06-19T09:27:47;99126.47;;;27.35;45.52
54329;BME280;40710;51.120;13.136;2023-06-19T09:30:15;99125.81;;;27.33;46.99
54329;BME280;40710;51.120;13.136;2023-06-19T09:32:40;99133.66;;;26.85;48.12
54329;BME280;40710;51.120;13.136;2023-06-19T09:35:04;99131.69;;;26.93;48.10
54329;BME280;40710;51.120;13.136;2023-06-19T09:37:30;99131.34;;;27.03;47.22
54329;BME280;40710;51.120;13.136;2023-06-19T09:39:57;99129.69;;;26.44;47.30
54329;BME280;40710;51.120;13.136;2023-06-19T09:42:33;99126.34;;;26.42;49.80
54329;BME280;40710;51.120;13.136;2023-06-19T09:45:03;99111.63;;;27.03;48.28
54329;BME280;40710;51.120;13.136;2023-06-19T09:47:36;99129.25;;;26.40;50.37
54329;BME280;40710;51.120;13.136;2023-06-19T09:50:02;99130.06;;;26.77;49.68
54329;BME280;40710;51.120;13.136;2023-06-19T09:52:27;99134.00;;;26.60;49.77
54329;BME280;40710;51.120;13.136;2023-06-19T09:54:53;99139.66;;;26.29;50.04
54329;BME280;40710;51.120;13.136;2023-06-19T09:57:18;99145.13;;;26.35;51.00
54329;BME280;40710;51.120;13.136;2023-06-19T09:59:49;99151.94;;;25.87;52.37
54329;BME280;40710;51.120;13.136;2023-06-19T10:02:15;99129.09;;;26.49;48.93
54329;BME280;40710;51.120;13.136;2023-06-19T10:04:52;99135.63;;;27.41;47.67
54329;BME280;40710;51.120;13.136;2023-06-19T10:07:20;99110.75;;;28.22;45.57
54329;BME280;40710;51.120;13.136;2023-06-19T10:10:24;99109.97;;;29.30;42.94
54329;BME280;40710;51.120;13.136;2023-06-19T10:12:50;99106.38;;;29.09;43.77
54329;BME280;40710;51.120;13.136;2023-06-19T10:15:21;99102.13;;;29.93;41.09
54329;BME280;40710;51.120;13.136;2023-06-19T10:17:54;99085.34;;;30.23;40.70
54329;BME280;40710;51.120;13.136;2023-06-19T10:20:33;99081.31;;;30.32;40.59
54329;BME280;40710;51.120;13.136;2023-06-19T10:23:10;99072.41;;;31.39;37.46
54329;BME280;40710;51.120;13.136;2023-06-19T10:25:40;99066.88;;;31.71;37.05
54329;BME280;40710;51.120;13.136;2023-06-19T10:28:20;99080.84;;;31.31;37.08
54329;BME280;40710;51.120;13.136;2023-06-19T10:30:52;99087.88;;;30.57;39.03
54329;BME280;40710;51.120;13.136;2023-06-19T10:33:17;99075.09;;;31.64;36.98
54329;BME280;40710;51.120;13.136;2023-06-19T10:35:42;99079.97;;;32.30;36.15
54329;BME280;40710;51.120;13.136;2023-06-19T10:38:07;99067.56;;;32.34;33.82
54329;BME280;40710;51.120;13.136;2023-06-19T10:40:33;99071.84;;;32.11;32.96
54329;BME280;40710;51.120;13.136;2023-06-19T10:42:57;99066.63;;;33.24;31.45
54329;BME280;40710;51.120;13.136;2023-06-19T10:45:21;99065.25;;;32.49;31.58
54329;BME280;40710;51.120;13.136;2023-06-19T10:47:52;99062.69;;;33.20;30.23
54329;BME280;40710;51.120;13.136;2023-06-19T10:50:17;99072.41;;;33.16;30.23
54329;BME280;40710;51.120;13.136;2023-06-19T10:52:43;99073.47;;;33.50;31.34
54329;BME280;40710;51.120;13.136;2023-06-19T10:55:08;99061.44;;;34.27;30.04
54329;BME280;40710;51.120;13.136;2023-06-19T10:57:33;99068.22;;;33.84;31.37
54329;BME280;40710;51.120;13.136;2023-06-19T10:59:58;99054.59;;;34.13;29.99
54329;BME280;40710;51.120;13.136;2023-06-19T11:02:23;99061.06;;;33.95;30.91
54329;BME280;40710;51.120;13.136;2023-06-19T11:04:48;99057.00;;;34.09;29.32
54329;BME280;40710;51.120;13.136;2023-06-19T11:07:12;99049.81;;;34.78;28.78
54329;BME280;40710;51.120;13.136;2023-06-19T11:09:37;99047.91;;;34.78;28.36
54329;BME280;40710;51.120;13.136;2023-06-19T11:12:01;99054.22;;;34.50;28.78
54329;BME280;40710;51.120;13.136;2023-06-19T11:14:29;99047.66;;;35.14;28.02
54329;BME280;40710;51.120;13.136;2023-06-19T11:16:54;99051.63;;;34.26;27.71
54329;BME280;40710;51.120;13.136;2023-06-19T11:19:20;99047.56;;;35.26;27.70
54329;BME280;40710;51.120;13.136;2023-06-19T11:21:47;99042.53;;;35.00;26.61
54329;BME280;40710;51.120;13.136;2023-06-19T11:24:14;99040.47;;;35.47;25.78
54329;BME280;40710;51.120;13.136;2023-06-19T11:26:40;99048.19;;;34.48;26.79
54329;BME280;40710;51.120;13.136;2023-06-19T11:29:18;99047.66;;;34.05;25.78
54329;BME280;40710;51.120;13.136;2023-06-19T11:31:42;99050.34;;;33.77;25.83
54329;BME280;40710;51.120;13.136;2023-06-19T11:34:07;99039.31;;;34.87;24.00
54329;BME280;40710;51.120;13.136;2023-06-19T11:36:32;99039.94;;;35.67;23.54
54329;BME280;40710;51.120;13.136;2023-06-19T11:38:56;99055.59;;;33.43;24.68
54329;BME280;40710;51.120;13.136;2023-06-19T11:41:28;99045.44;;;34.31;23.85
54329;BME280;40710;51.120;13.136;2023-06-19T11:44:00;99045.38;;;33.62;24.57
54329;BME280;40710;51.120;13.136;2023-06-19T11:46:32;99038.59;;;34.62;24.41
54329;BME280;40710;51.120;13.136;2023-06-19T11:49:12;99032.50;;;35.40;23.68
54329;BME280;40710;51.120;13.136;2023-06-19T11:51:38;99030.19;;;35.32;24.04
54329;BME280;40710;51.120;13.136;2023-06-19T11:54:06;99024.94;;;36.19;22.47
54329;BME280;40710;51.120;13.136;2023-06-19T11:56:31;99036.66;;;34.00;24.82
54329;BME280;40710;51.120;13.136;2023-06-19T11:58:56;99042.69;;;33.38;26.32
54329;BME280;40710;51.120;13.136;2023-06-19T12:01:20;99031.63;;;34.21;25.15
54329;BME280;40710;51.120;13.136;2023-06-19T12:03:45;99033.91;;;34.00;25.01
54329;BME280;40710;51.120;13.136;2023-06-19T12:06:09;99051.16;;;32.71;26.71
54329;BME280;40710;51.120;13.136;2023-06-19T12:08:34;99043.00;;;33.65;25.47
54329;BME280;40710;51.120;13.136;2023-06-19T12:11:02;99034.53;;;34.31;24.88
54329;BME280;40710;51.120;13.136;2023-06-19T12:13:27;99035.53;;;34.59;25.11
54329;BME280;40710;51.120;13.136;2023-06-19T12:15:51;99032.13;;;34.80;25.00
54329;BME280;40710;51.120;13.136;2023-06-19T12:18:16;99020.03;;;34.76;25.04
54329;BME280;40710;51.120;13.136;2023-06-19T12:20:40;99036.84;;;34.39;25.77
54329;BME280;40710;51.120;13.136;2023-06-19T12:23:05;99027.63;;;35.25;24.59
54329;BME280;40710;51.120;13.136;2023-06-19T12:25:29;99033.25;;;35.35;24.30
54329;BME280;40710;51.120;13.136;2023-06-19T12:27:54;99029.47;;;34.86;24.61
54329;BME280;40710;51.120;13.136;2023-06-19T12:30:19;99031.38;;;34.39;24.92
54329;BME280;40710;51.120;13.136;2023-06-19T12:32:43;99032.25;;;34.57;24.96
54329;BME280;40710;51.120;13.136;2023-06-19T12:35:08;99031.25;;;34.63;25.44
54329;BME280;40710;51.120;13.136;2023-06-19T12:37:32;99048.59;;;33.99;28.62
54329;BME280;40710;51.120;13.136;2023-06-19T12:39:57;99051.06;;;33.13;28.53
54329;BME280;40710;51.120;13.136;2023-06-19T12:42:21;99040.53;;;33.76;27.21
54329;BME280;40710;51.120;13.136;2023-06-19T12:44:46;99042.19;;;34.05;26.46